TOO weather

Rancho El Tulillo Airport
Zacatecas, Mexico

Public forecast

Using degrees Celsius for public forecast. Weather courtesy of forecast.io.

METAR (pilot weather report)

Closest report is General Leobardo C. Ruiz International Airport, 74.6 nm (138.1 km) SW. Retrieved 2019/04/26 09:48 UTC (26 minutes ago):

MMZC 260948Z 00000KT 10SM BKN100 11/M09 A3025 RMK 8/030

TAF (pilot weather forecast)

Closest forecast is General Leobardo C. Ruiz International Airport, 74.6 nm (138.1 km) SW. Retrieved 2019/04/26 06:42 UTC (4 hours ago):

TAF MMZC 260436Z 2606/2712 09005KT P6SM BKN100 TX25/2621Z TN10/2612Z FM261800 13010KT P6SM SCT090 SCT220 BECMG 2706/2708 12015KT